sensor_id;sensor_type;location;lat;lon;timestamp;P1;durP1;ratioP1;P2;durP2;ratioP2
38629;SDS011;24384;51.988;4.644;2023-05-07T00:01:36;20.50;;;15.85;;
38629;SDS011;24384;51.988;4.644;2023-05-07T00:04:02;18.85;;;15.30;;
38629;SDS011;24384;51.988;4.644;2023-05-07T00:06:28;18.77;;;16.25;;
38629;SDS011;24384;51.988;4.644;2023-05-07T00:08:56;21.38;;;16.58;;
38629;SDS011;24384;51.988;4.644;2023-05-07T00:11:21;24.70;;;17.70;;
38629;SDS011;24384;51.988;4.644;2023-05-07T00:13:48;21.85;;;17.17;;
38629;SDS011;24384;51.988;4.644;2023-05-07T00:16:13;21.85;;;17.73;;
38629;SDS011;24384;51.988;4.644;2023-05-07T00:18:39;23.92;;;17.55;;
38629;SDS011;24384;51.988;4.644;2023-05-07T00:21:04;22.65;;;16.15;;
38629;SDS011;24384;51.988;4.644;2023-05-07T00:23:30;21.42;;;17.30;;
38629;SDS011;24384;51.988;4.644;2023-05-07T00:25:55;19.80;;;16.67;;
38629;SDS011;24384;51.988;4.644;2023-05-07T00:28:21;23.48;;;15.95;;
38629;SDS011;24384;51.988;4.644;2023-05-07T00:30:46;23.20;;;17.00;;
38629;SDS011;24384;51.988;4.644;2023-05-07T00:33:12;21.95;;;17.63;;
38629;SDS011;24384;51.988;4.644;2023-05-07T00:35:38;21.02;;;17.50;;
38629;SDS011;24384;51.988;4.644;2023-05-07T00:38:03;19.88;;;17.88;;
38629;SDS011;24384;51.988;4.644;2023-05-07T00:40:28;20.60;;;17.20;;
38629;SDS011;24384;51.988;4.644;2023-05-07T00:42:53;24.27;;;17.58;;
38629;SDS011;24384;51.988;4.644;2023-05-07T00:45:22;19.80;;;17.50;;
38629;SDS011;24384;51.988;4.644;2023-05-07T00:47:51;21.67;;;18.17;;
38629;SDS011;24384;51.988;4.644;2023-05-07T00:50:16;19.58;;;17.13;;
38629;SDS011;24384;51.988;4.644;2023-05-07T00:52:44;19.73;;;17.30;;
38629;SDS011;24384;51.988;4.644;2023-05-07T00:55:09;21.20;;;17.23;;
38629;SDS011;24384;51.988;4.644;2023-05-07T00:57:36;23.40;;;18.38;;
38629;SDS011;24384;51.988;4.644;2023-05-07T01:00:03;21.55;;;18.05;;
38629;SDS011;24384;51.988;4.644;2023-05-07T01:02:29;22.83;;;17.92;;
38629;SDS011;24384;51.988;4.644;2023-05-07T01:04:55;20.13;;;17.77;;
38629;SDS011;24384;51.988;4.644;2023-05-07T01:07:21;21.83;;;18.05;;
38629;SDS011;24384;51.988;4.644;2023-05-07T01:09:48;20.20;;;16.80;;
38629;SDS011;24384;51.988;4.644;2023-05-07T01:12:13;23.27;;;20.15;;
38629;SDS011;24384;51.988;4.644;2023-05-07T01:14:41;21.30;;;18.05;;
38629;SDS011;24384;51.988;4.644;2023-05-07T01:17:06;23.83;;;18.73;;
38629;SDS011;24384;51.988;4.644;2023-05-07T01:19:34;23.02;;;19.50;;
38629;SDS011;24384;51.988;4.644;2023-05-07T01:22:05;24.33;;;20.40;;
38629;SDS011;24384;51.988;4.644;2023-05-07T01:24:33;24.20;;;19.63;;
38629;SDS011;24384;51.988;4.644;2023-05-07T01:27:01;26.63;;;20.55;;
38629;SDS011;24384;51.988;4.644;2023-05-07T01:29:28;23.95;;;19.27;;
38629;SDS011;24384;51.988;4.644;2023-05-07T01:31:53;23.15;;;20.60;;
38629;SDS011;24384;51.988;4.644;2023-05-07T01:34:20;27.55;;;19.85;;
38629;SDS011;24384;51.988;4.644;2023-05-07T01:36:46;24.95;;;19.90;;
38629;SDS011;24384;51.988;4.644;2023-05-07T01:39:12;24.02;;;20.17;;
38629;SDS011;24384;51.988;4.644;2023-05-07T01:41:38;28.00;;;20.73;;
38629;SDS011;24384;51.988;4.644;2023-05-07T01:44:04;26.77;;;20.33;;
38629;SDS011;24384;51.988;4.644;2023-05-07T01:46:31;22.45;;;19.48;;
38629;SDS011;24384;51.988;4.644;2023-05-07T01:48:57;26.13;;;19.73;;
38629;SDS011;24384;51.988;4.644;2023-05-07T01:51:23;23.50;;;17.52;;
38629;SDS011;24384;51.988;4.644;2023-05-07T01:53:51;19.23;;;17.30;;
38629;SDS011;24384;51.988;4.644;2023-05-07T01:56:18;19.00;;;16.33;;
38629;SDS011;24384;51.988;4.644;2023-05-07T01:58:44;17.80;;;15.85;;
38629;SDS011;24384;51.988;4.644;2023-05-07T02:01:11;16.38;;;14.65;;
38629;SDS011;24384;51.988;4.644;2023-05-07T02:03:36;17.80;;;14.98;;
38629;SDS011;24384;51.988;4.644;2023-05-07T02:06:01;16.85;;;14.90;;
38629;SDS011;24384;51.988;4.644;2023-05-07T02:08:26;19.63;;;15.90;;
38629;SDS011;24384;51.988;4.644;2023-05-07T02:10:52;15.98;;;14.30;;
38629;SDS011;24384;51.988;4.644;2023-05-07T02:13:18;16.67;;;14.68;;
38629;SDS011;24384;51.988;4.644;2023-05-07T02:15:44;19.13;;;14.75;;
38629;SDS011;24384;51.988;4.644;2023-05-07T02:18:14;17.60;;;14.43;;
38629;SDS011;24384;51.988;4.644;2023-05-07T02:20:39;15.90;;;13.10;;
38629;SDS011;24384;51.988;4.644;2023-05-07T02:23:04;16.95;;;14.77;;
38629;SDS011;24384;51.988;4.644;2023-05-07T02:25:29;18.30;;;14.70;;
38629;SDS011;24384;51.988;4.644;2023-05-07T02:27:55;17.25;;;13.70;;
38629;SDS011;24384;51.988;4.644;2023-05-07T02:30:20;15.65;;;13.40;;
38629;SDS011;24384;51.988;4.644;2023-05-07T02:32:46;17.48;;;14.18;;
38629;SDS011;24384;51.988;4.644;2023-05-07T02:35:11;17.58;;;14.07;;
38629;SDS011;24384;51.988;4.644;2023-05-07T02:37:36;17.80;;;14.27;;
38629;SDS011;24384;51.988;4.644;2023-05-07T02:40:02;18.00;;;13.57;;
38629;SDS011;24384;51.988;4.644;2023-05-07T02:42:29;16.15;;;14.55;;
38629;SDS011;24384;51.988;4.644;2023-05-07T02:44:54;16.60;;;13.73;;
38629;SDS011;24384;51.988;4.644;2023-05-07T02:47:19;16.73;;;14.02;;
38629;SDS011;24384;51.988;4.644;2023-05-07T02:49:44;17.75;;;14.18;;
38629;SDS011;24384;51.988;4.644;2023-05-07T02:52:11;14.65;;;13.15;;
38629;SDS011;24384;51.988;4.644;2023-05-07T02:54:36;14.32;;;12.57;;
38629;SDS011;24384;51.988;4.644;2023-05-07T02:57:01;16.13;;;13.13;;
38629;SDS011;24384;51.988;4.644;2023-05-07T02:59:28;17.30;;;12.32;;
38629;SDS011;24384;51.988;4.644;2023-05-07T03:01:55;14.77;;;12.57;;
38629;SDS011;24384;51.988;4.644;2023-05-07T03:04:21;12.45;;;11.25;;
38629;SDS011;24384;51.988;4.644;2023-05-07T03:06:47;15.30;;;12.82;;
38629;SDS011;24384;51.988;4.644;2023-05-07T03:09:12;15.73;;;11.40;;
38629;SDS011;24384;51.988;4.644;2023-05-07T03:11:37;15.07;;;12.25;;
38629;SDS011;24384;51.988;4.644;2023-05-07T03:14:02;14.07;;;11.68;;
38629;SDS011;24384;51.988;4.644;2023-05-07T03:16:28;13.13;;;11.02;;
38629;SDS011;24384;51.988;4.644;2023-05-07T03:18:53;14.55;;;11.90;;
38629;SDS011;24384;51.988;4.644;2023-05-07T03:21:18;12.95;;;10.57;;
38629;SDS011;24384;51.988;4.644;2023-05-07T03:23:43;13.15;;;11.55;;
38629;SDS011;24384;51.988;4.644;2023-05-07T03:26:09;16.65;;;12.45;;
38629;SDS011;24384;51.988;4.644;2023-05-07T03:28:34;13.40;;;11.23;;
38629;SDS011;24384;51.988;4.644;2023-05-07T03:31:00;14.00;;;11.05;;
38629;SDS011;24384;51.988;4.644;2023-05-07T03:33:25;11.23;;;10.07;;
38629;SDS011;24384;51.988;4.644;2023-05-07T03:35:53;14.20;;;10.25;;
38629;SDS011;24384;51.988;4.644;2023-05-07T03:38:19;11.63;;;10.43;;
38629;SDS011;24384;51.988;4.644;2023-05-07T03:40:44;12.63;;;11.32;;
38629;SDS011;24384;51.988;4.644;2023-05-07T03:43:11;12.15;;;10.85;;
38629;SDS011;24384;51.988;4.644;2023-05-07T03:45:36;12.50;;;11.15;;
38629;SDS011;24384;51.988;4.644;2023-05-07T03:48:01;12.85;;;11.55;;
38629;SDS011;24384;51.988;4.644;2023-05-07T03:50:27;12.90;;;10.80;;
38629;SDS011;24384;51.988;4.644;2023-05-07T03:52:52;12.70;;;10.82;;
38629;SDS011;24384;51.988;4.644;2023-05-07T03:55:17;12.65;;;10.77;;
38629;SDS011;24384;51.988;4.644;2023-05-07T03:57:44;10.93;;;9.77;;
38629;SDS011;24384;51.988;4.644;2023-05-07T04:00:09;13.20;;;9.73;;
38629;SDS011;24384;51.988;4.644;2023-05-07T04:02:35;13.10;;;9.73;;
38629;SDS011;24384;51.988;4.644;2023-05-07T04:05:00;12.35;;;10.57;;
38629;SDS011;24384;51.988;4.644;2023-05-07T04:07:26;11.68;;;10.18;;
38629;SDS011;24384;51.988;4.644;2023-05-07T04:09:51;10.93;;;9.75;;
38629;SDS011;24384;51.988;4.644;2023-05-07T04:12:16;13.15;;;9.88;;
38629;SDS011;24384;51.988;4.644;2023-05-07T04:14:41;11.35;;;9.73;;
38629;SDS011;24384;51.988;4.644;2023-05-07T04:17:07;11.32;;;9.70;;
38629;SDS011;24384;51.988;4.644;2023-05-07T04:19:36;10.35;;;9.32;;
38629;SDS011;24384;51.988;4.644;2023-05-07T04:22:01;12.77;;;9.45;;
38629;SDS011;24384;51.988;4.644;2023-05-07T04:24:26;12.85;;;10.27;;
38629;SDS011;24384;51.988;4.644;2023-05-07T04:26:52;12.10;;;9.85;;
38629;SDS011;24384;51.988;4.644;2023-05-07T04:29:17;13.07;;;9.23;;
38629;SDS011;24384;51.988;4.644;2023-05-07T04:31:44;16.60;;;9.43;;
38629;SDS011;24384;51.988;4.644;2023-05-07T04:34:10;10.27;;;9.27;;
38629;SDS011;24384;51.988;4.644;2023-05-07T04:36:38;12.80;;;10.20;;
38629;SDS011;24384;51.988;4.644;2023-05-07T04:39:03;12.80;;;10.95;;
38629;SDS011;24384;51.988;4.644;2023-05-07T04:41:29;13.18;;;10.77;;
38629;SDS011;24384;51.988;4.644;2023-05-07T04:43:55;13.85;;;9.45;;
38629;SDS011;24384;51.988;4.644;2023-05-07T04:46:21;10.93;;;9.82;;
38629;SDS011;24384;51.988;4.644;2023-05-07T04:48:47;12.82;;;11.32;;
38629;SDS011;24384;51.988;4.644;2023-05-07T04:51:12;14.57;;;11.07;;
38629;SDS011;24384;51.988;4.644;2023-05-07T04:53:37;13.75;;;12.23;;
38629;SDS011;24384;51.988;4.644;2023-05-07T04:56:03;11.63;;;9.98;;
38629;SDS011;24384;51.988;4.644;2023-05-07T04:58:28;15.30;;;10.55;;
38629;SDS011;24384;51.988;4.644;2023-05-07T05:00:56;12.98;;;10.63;;
38629;SDS011;24384;51.988;4.644;2023-05-07T05:03:22;17.73;;;10.45;;
38629;SDS011;24384;51.988;4.644;2023-05-07T05:05:48;12.23;;;10.48;;
38629;SDS011;24384;51.988;4.644;2023-05-07T05:08:14;11.70;;;10.52;;
38629;SDS011;24384;51.988;4.644;2023-05-07T05:10:39;11.98;;;10.57;;
38629;SDS011;24384;51.988;4.644;2023-05-07T05:13:06;12.45;;;11.20;;
38629;SDS011;24384;51.988;4.644;2023-05-07T05:15:32;15.07;;;11.52;;
38629;SDS011;24384;51.988;4.644;2023-05-07T05:17:58;12.57;;;11.20;;
38629;SDS011;24384;51.988;4.644;2023-05-07T05:20:23;13.57;;;11.65;;
38629;SDS011;24384;51.988;4.644;2023-05-07T05:22:48;17.00;;;11.23;;
38629;SDS011;24384;51.988;4.644;2023-05-07T05:25:14;18.13;;;12.55;;
38629;SDS011;24384;51.988;4.644;2023-05-07T05:27:39;16.35;;;10.48;;
38629;SDS011;24384;51.988;4.644;2023-05-07T05:30:04;15.23;;;10.27;;
38629;SDS011;24384;51.988;4.644;2023-05-07T05:32:30;11.98;;;10.05;;
38629;SDS011;24384;51.988;4.644;2023-05-07T05:34:57;14.63;;;11.35;;
38629;SDS011;24384;51.988;4.644;2023-05-07T05:37:22;14.18;;;12.07;;
38629;SDS011;24384;51.988;4.644;2023-05-07T05:39:49;15.88;;;11.85;;
38629;SDS011;24384;51.988;4.644;2023-05-07T05:42:14;14.85;;;11.05;;
38629;SDS011;24384;51.988;4.644;2023-05-07T05:44:39;17.30;;;11.93;;
38629;SDS011;24384;51.988;4.644;2023-05-07T05:47:05;15.90;;;11.52;;
38629;SDS011;24384;51.988;4.644;2023-05-07T05:49:30;15.70;;;11.05;;
38629;SDS011;24384;51.988;4.644;2023-05-07T05:51:55;13.88;;;11.25;;
38629;SDS011;24384;51.988;4.644;2023-05-07T05:54:21;18.75;;;13.40;;
38629;SDS011;24384;51.988;4.644;2023-05-07T05:56:46;13.02;;;11.32;;
38629;SDS011;24384;51.988;4.644;2023-05-07T05:59:11;15.98;;;13.32;;
38629;SDS011;24384;51.988;4.644;2023-05-07T06:01:37;13.77;;;12.20;;
38629;SDS011;24384;51.988;4.644;2023-05-07T06:04:02;18.92;;;14.85;;
38629;SDS011;24384;51.988;4.644;2023-05-07T06:06:28;14.23;;;12.25;;
38629;SDS011;24384;51.988;4.644;2023-05-07T06:08:53;15.40;;;13.90;;
38629;SDS011;24384;51.988;4.644;2023-05-07T06:11:18;16.15;;;14.45;;
38629;SDS011;24384;51.988;4.644;2023-05-07T06:13:43;15.65;;;14.02;;
38629;SDS011;24384;51.988;4.644;2023-05-07T06:16:09;16.60;;;14.50;;
38629;SDS011;24384;51.988;4.644;2023-05-07T06:18:34;14.95;;;13.25;;
38629;SDS011;24384;51.988;4.644;2023-05-07T06:21:01;16.98;;;13.88;;
38629;SDS011;24384;51.988;4.644;2023-05-07T06:23:26;18.38;;;15.43;;
38629;SDS011;24384;51.988;4.644;2023-05-07T06:25:51;16.77;;;15.07;;
38629;SDS011;24384;51.988;4.644;2023-05-07T06:28:17;18.83;;;16.92;;
38629;SDS011;24384;51.988;4.644;2023-05-07T06:30:42;25.40;;;18.20;;
38629;SDS011;24384;51.988;4.644;2023-05-07T06:33:07;21.05;;;17.83;;
38629;SDS011;24384;51.988;4.644;2023-05-07T06:35:33;22.65;;;18.67;;
38629;SDS011;24384;51.988;4.644;2023-05-07T06:37:58;20.38;;;18.10;;
38629;SDS011;24384;51.988;4.644;2023-05-07T06:40:24;21.08;;;18.25;;
38629;SDS011;24384;51.988;4.644;2023-05-07T06:42:50;20.08;;;17.20;;
38629;SDS011;24384;51.988;4.644;2023-05-07T06:45:16;21.13;;;16.73;;
38629;SDS011;24384;51.988;4.644;2023-05-07T06:47:42;22.80;;;19.48;;
38629;SDS011;24384;51.988;4.644;2023-05-07T06:50:08;20.08;;;17.92;;
38629;SDS011;24384;51.988;4.644;2023-05-07T06:52:34;20.45;;;17.65;;
38629;SDS011;24384;51.988;4.644;2023-05-07T06:55:00;20.30;;;17.05;;
38629;SDS011;24384;51.988;4.644;2023-05-07T06:57:27;19.73;;;17.73;;
38629;SDS011;24384;51.988;4.644;2023-05-07T06:59:52;18.55;;;16.48;;
38629;SDS011;24384;51.988;4.644;2023-05-07T07:02:17;21.75;;;17.33;;
38629;SDS011;24384;51.988;4.644;2023-05-07T07:04:42;18.20;;;15.60;;
38629;SDS011;24384;51.988;4.644;2023-05-07T07:07:08;18.85;;;16.85;;
38629;SDS011;24384;51.988;4.644;2023-05-07T07:09:33;19.00;;;16.55;;
38629;SDS011;24384;51.988;4.644;2023-05-07T07:11:58;20.02;;;15.80;;
38629;SDS011;24384;51.988;4.644;2023-05-07T07:14:24;19.70;;;15.77;;
38629;SDS011;24384;51.988;4.644;2023-05-07T07:16:49;20.13;;;17.30;;
38629;SDS011;24384;51.988;4.644;2023-05-07T07:19:14;20.70;;;15.25;;
38629;SDS011;24384;51.988;4.644;2023-05-07T07:21:40;20.13;;;17.35;;
38629;SDS011;24384;51.988;4.644;2023-05-07T07:24:06;19.42;;;17.52;;
38629;SDS011;24384;51.988;4.644;2023-05-07T07:26:32;19.90;;;17.80;;
38629;SDS011;24384;51.988;4.644;2023-05-07T07:28:57;19.20;;;17.27;;
38629;SDS011;24384;51.988;4.644;2023-05-07T07:31:23;22.52;;;18.98;;
38629;SDS011;24384;51.988;4.644;2023-05-07T07:33:48;18.65;;;16.77;;
38629;SDS011;24384;51.988;4.644;2023-05-07T07:36:15;26.17;;;16.63;;
38629;SDS011;24384;51.988;4.644;2023-05-07T07:38:41;18.50;;;14.30;;
38629;SDS011;24384;51.988;4.644;2023-05-07T07:41:10;15.25;;;13.55;;
38629;SDS011;24384;51.988;4.644;2023-05-07T07:43:35;17.75;;;14.63;;
38629;SDS011;24384;51.988;4.644;2023-05-07T07:46:01;15.05;;;13.55;;
38629;SDS011;24384;51.988;4.644;2023-05-07T07:48:26;15.90;;;13.27;;
38629;SDS011;24384;51.988;4.644;2023-05-07T07:50:51;16.10;;;12.43;;
38629;SDS011;24384;51.988;4.644;2023-05-07T07:53:17;15.75;;;12.57;;
38629;SDS011;24384;51.988;4.644;2023-05-07T07:55:43;14.57;;;12.82;;
38629;SDS011;24384;51.988;4.644;2023-05-07T07:58:08;17.33;;;13.75;;
38629;SDS011;24384;51.988;4.644;2023-05-07T08:00:33;20.15;;;15.57;;
38629;SDS011;24384;51.988;4.644;2023-05-07T08:02:58;17.00;;;12.85;;
38629;SDS011;24384;51.988;4.644;2023-05-07T08:05:24;13.77;;;11.00;;
38629;SDS011;24384;51.988;4.644;2023-05-07T08:07:49;15.77;;;12.40;;
38629;SDS011;24384;51.988;4.644;2023-05-07T08:10:17;16.55;;;13.63;;
38629;SDS011;24384;51.988;4.644;2023-05-07T08:12:46;14.07;;;12.57;;
38629;SDS011;24384;51.988;4.644;2023-05-07T08:15:12;17.38;;;13.07;;
38629;SDS011;24384;51.988;4.644;2023-05-07T08:17:37;15.32;;;12.35;;
38629;SDS011;24384;51.988;4.644;2023-05-07T08:20:03;14.57;;;10.90;;
38629;SDS011;24384;51.988;4.644;2023-05-07T08:22:28;20.77;;;13.90;;
38629;SDS011;24384;51.988;4.644;2023-05-07T08:24:53;15.52;;;10.68;;
38629;SDS011;24384;51.988;4.644;2023-05-07T08:27:19;13.73;;;12.30;;
38629;SDS011;24384;51.988;4.644;2023-05-07T08:29:44;15.30;;;13.38;;
38629;SDS011;24384;51.988;4.644;2023-05-07T08:32:12;14.75;;;13.27;;
38629;SDS011;24384;51.988;4.644;2023-05-07T08:34:37;15.15;;;13.38;;
38629;SDS011;24384;51.988;4.644;2023-05-07T08:37:02;15.95;;;14.23;;
38629;SDS011;24384;51.988;4.644;2023-05-07T08:39:28;16.45;;;14.18;;
38629;SDS011;24384;51.988;4.644;2023-05-07T08:41:54;15.65;;;14.13;;
38629;SDS011;24384;51.988;4.644;2023-05-07T08:44:22;16.90;;;12.57;;
38629;SDS011;24384;51.988;4.644;2023-05-07T08:46:51;14.60;;;12.25;;
38629;SDS011;24384;51.988;4.644;2023-05-07T08:49:18;15.68;;;12.18;;
38629;SDS011;24384;51.988;4.644;2023-05-07T08:51:44;14.02;;;10.15;;
38629;SDS011;24384;51.988;4.644;2023-05-07T08:54:11;13.57;;;12.18;;
38629;SDS011;24384;51.988;4.644;2023-05-07T08:56:41;18.77;;;12.13;;
38629;SDS011;24384;51.988;4.644;2023-05-07T08:59:06;15.63;;;12.30;;
38629;SDS011;24384;51.988;4.644;2023-05-07T09:01:31;14.65;;;11.15;;
38629;SDS011;24384;51.988;4.644;2023-05-07T09:03:57;12.15;;;9.90;;
38629;SDS011;24384;51.988;4.644;2023-05-07T09:06:22;13.35;;;10.57;;
38629;SDS011;24384;51.988;4.644;2023-05-07T09:08:52;11.15;;;9.95;;
38629;SDS011;24384;51.988;4.644;2023-05-07T09:11:21;15.38;;;9.65;;
38629;SDS011;24384;51.988;4.644;2023-05-07T09:13:48;16.92;;;13.13;;
38629;SDS011;24384;51.988;4.644;2023-05-07T09:16:13;13.40;;;11.57;;
38629;SDS011;24384;51.988;4.644;2023-05-07T09:18:41;14.88;;;12.43;;
38629;SDS011;24384;51.988;4.644;2023-05-07T09:21:09;16.80;;;13.68;;
38629;SDS011;24384;51.988;4.644;2023-05-07T09:23:35;38.15;;;16.38;;
38629;SDS011;24384;51.988;4.644;2023-05-07T09:26:01;16.75;;;13.10;;
38629;SDS011;24384;51.988;4.644;2023-05-07T09:28:27;14.80;;;12.30;;
38629;SDS011;24384;51.988;4.644;2023-05-07T09:30:52;16.15;;;13.55;;
38629;SDS011;24384;51.988;4.644;2023-05-07T09:33:19;18.13;;;13.52;;
38629;SDS011;24384;51.988;4.644;2023-05-07T09:35:44;14.88;;;12.38;;
38629;SDS011;24384;51.988;4.644;2023-05-07T09:38:09;13.27;;;10.60;;
38629;SDS011;24384;51.988;4.644;2023-05-07T09:40:35;11.23;;;8.98;;
38629;SDS011;24384;51.988;4.644;2023-05-07T09:43:10;11.80;;;10.55;;
38629;SDS011;24384;51.988;4.644;2023-05-07T09:45:36;12.02;;;9.85;;
38629;SDS011;24384;51.988;4.644;2023-05-07T09:48:03;12.70;;;10.90;;
38629;SDS011;24384;51.988;4.644;2023-05-07T09:50:43;14.35;;;12.38;;
38629;SDS011;24384;51.988;4.644;2023-05-07T09:53:14;15.05;;;10.18;;
38629;SDS011;24384;51.988;4.644;2023-05-07T09:55:39;9.98;;;8.60;;
38629;SDS011;24384;51.988;4.644;2023-05-07T09:58:05;16.05;;;9.18;;
38629;SDS011;24384;51.988;4.644;2023-05-07T10:00:31;12.75;;;9.15;;
38629;SDS011;24384;51.988;4.644;2023-05-07T10:02:57;14.98;;;10.55;;
38629;SDS011;24384;51.988;4.644;2023-05-07T10:05:23;12.10;;;9.50;;
38629;SDS011;24384;51.988;4.644;2023-05-07T10:07:50;11.32;;;8.55;;
38629;SDS011;24384;51.988;4.644;2023-05-07T10:10:15;12.20;;;9.10;;
38629;SDS011;24384;51.988;4.644;2023-05-07T10:12:42;13.07;;;9.10;;
38629;SDS011;24384;51.988;4.644;2023-05-07T10:15:07;12.75;;;8.13;;
38629;SDS011;24384;51.988;4.644;2023-05-07T10:17:35;11.57;;;9.65;;
38629;SDS011;24384;51.988;4.644;2023-05-07T10:20:01;11.52;;;8.15;;
38629;SDS011;24384;51.988;4.644;2023-05-07T10:22:27;10.82;;;8.25;;
38629;SDS011;24384;51.988;4.644;2023-05-07T10:24:57;11.57;;;9.25;;
38629;SDS011;24384;51.988;4.644;2023-05-07T10:27:27;10.18;;;8.13;;
38629;SDS011;24384;51.988;4.644;2023-05-07T10:32:30;11.73;;;7.57;;
38629;SDS011;24384;51.988;4.644;2023-05-07T10:35:02;15.30;;;8.35;;
38629;SDS011;24384;51.988;4.644;2023-05-07T10:37:31;8.73;;;7.30;;
38629;SDS011;24384;51.988;4.644;2023-05-07T10:39:58;11.90;;;7.32;;
38629;SDS011;24384;51.988;4.644;2023-05-07T10:42:23;9.35;;;7.35;;
38629;SDS011;24384;51.988;4.644;2023-05-07T10:44:49;11.20;;;8.18;;
38629;SDS011;24384;51.988;4.644;2023-05-07T10:47:15;10.38;;;7.80;;
38629;SDS011;24384;51.988;4.644;2023-05-07T10:52:18;7.85;;;7.05;;
38629;SDS011;24384;51.988;4.644;2023-05-07T10:54:45;11.30;;;8.07;;
38629;SDS011;24384;51.988;4.644;2023-05-07T11:00:40;9.00;;;7.15;;
38629;SDS011;24384;51.988;4.644;2023-05-07T11:05:24;13.82;;;7.40;;
38629;SDS011;24384;51.988;4.644;2023-05-07T11:07:56;12.25;;;7.85;;
38629;SDS011;24384;51.988;4.644;2023-05-07T11:10:23;10.20;;;7.25;;
38629;SDS011;24384;51.988;4.644;2023-05-07T11:13:14;9.23;;;7.22;;
38629;SDS011;24384;51.988;4.644;2023-05-07T11:15:40;10.90;;;7.10;;
38629;SDS011;24384;51.988;4.644;2023-05-07T11:18:16;13.07;;;7.30;;
38629;SDS011;24384;51.988;4.644;2023-05-07T11:20:56;12.82;;;7.18;;
38629;SDS011;24384;51.988;4.644;2023-05-07T11:26:00;10.15;;;6.28;;
38629;SDS011;24384;51.988;4.644;2023-05-07T11:28:36;10.90;;;6.55;;
38629;SDS011;24384;51.988;4.644;2023-05-07T11:31:03;8.23;;;5.43;;
38629;SDS011;24384;51.988;4.644;2023-05-07T11:33:29;8.65;;;5.97;;
38629;SDS011;24384;51.988;4.644;2023-05-07T11:35:55;8.07;;;6.50;;
38629;SDS011;24384;51.988;4.644;2023-05-07T11:38:20;9.95;;;6.60;;
38629;SDS011;24384;51.988;4.644;2023-05-07T11:40:49;11.57;;;6.30;;
38629;SDS011;24384;51.988;4.644;2023-05-07T11:43:19;9.07;;;6.10;;
38629;SDS011;24384;51.988;4.644;2023-05-07T11:45:48;12.75;;;7.53;;
38629;SDS011;24384;51.988;4.644;2023-05-07T11:48:14;10.23;;;6.95;;
38629;SDS011;24384;51.988;4.644;2023-05-07T11:50:52;9.55;;;6.25;;
38629;SDS011;24384;51.988;4.644;2023-05-07T11:53:27;11.73;;;6.97;;
38629;SDS011;24384;51.988;4.644;2023-05-07T11:55:59;9.43;;;6.15;;
38629;SDS011;24384;51.988;4.644;2023-05-07T11:58:25;9.68;;;6.90;;
38629;SDS011;24384;51.988;4.644;2023-05-07T12:00:53;8.45;;;7.55;;
38629;SDS011;24384;51.988;4.644;2023-05-07T12:03:19;11.63;;;7.55;;
38629;SDS011;24384;51.988;4.644;2023-05-07T12:05:45;14.60;;;6.88;;
38629;SDS011;24384;51.988;4.644;2023-05-07T12:08:15;12.82;;;7.43;;
38629;SDS011;24384;51.988;4.644;2023-05-07T12:10:41;13.40;;;8.70;;
38629;SDS011;24384;51.988;4.644;2023-05-07T12:13:14;8.98;;;6.65;;
38629;SDS011;24384;51.988;4.644;2023-05-07T12:15:41;8.45;;;6.35;;
38629;SDS011;24384;51.988;4.644;2023-05-07T12:18:07;9.40;;;6.38;;
38629;SDS011;24384;51.988;4.644;2023-05-07T12:20:33;14.02;;;6.68;;
38629;SDS011;24384;51.988;4.644;2023-05-07T12:23:00;11.82;;;6.47;;
38629;SDS011;24384;51.988;4.644;2023-05-07T12:25:26;11.52;;;7.13;;
38629;SDS011;24384;51.988;4.644;2023-05-07T12:27:52;13.00;;;8.18;;
38629;SDS011;24384;51.988;4.644;2023-05-07T12:30:18;9.52;;;6.90;;
38629;SDS011;24384;51.988;4.644;2023-05-07T12:32:44;13.13;;;8.82;;
38629;SDS011;24384;51.988;4.644;2023-05-07T12:35:10;10.07;;;8.30;;
38629;SDS011;24384;51.988;4.644;2023-05-07T12:37:35;13.75;;;8.55;;
38629;SDS011;24384;51.988;4.644;2023-05-07T12:40:04;11.27;;;8.88;;
38629;SDS011;24384;51.988;4.644;2023-05-07T12:42:37;10.50;;;8.95;;
38629;SDS011;24384;51.988;4.644;2023-05-07T12:45:08;11.35;;;8.20;;
38629;SDS011;24384;51.988;4.644;2023-05-07T12:47:35;13.85;;;8.55;;
38629;SDS011;24384;51.988;4.644;2023-05-07T12:50:00;11.25;;;8.13;;
38629;SDS011;24384;51.988;4.644;2023-05-07T12:52:27;11.30;;;9.85;;
38629;SDS011;24384;51.988;4.644;2023-05-07T12:54:53;12.73;;;8.98;;
38629;SDS011;24384;51.988;4.644;2023-05-07T12:57:19;12.85;;;8.85;;
38629;SDS011;24384;51.988;4.644;2023-05-07T12:59:45;10.93;;;9.10;;
38629;SDS011;24384;51.988;4.644;2023-05-07T13:02:10;10.98;;;9.27;;
38629;SDS011;24384;51.988;4.644;2023-05-07T13:04:37;10.80;;;8.55;;
38629;SDS011;24384;51.988;4.644;2023-05-07T13:07:02;14.85;;;8.80;;
38629;SDS011;24384;51.988;4.644;2023-05-07T13:09:28;14.65;;;9.10;;
38629;SDS011;24384;51.988;4.644;2023-05-07T13:11:56;10.98;;;8.85;;
38629;SDS011;24384;51.988;4.644;2023-05-07T13:14:23;16.02;;;10.27;;
38629;SDS011;24384;51.988;4.644;2023-05-07T13:16:48;13.82;;;9.95;;
38629;SDS011;24384;51.988;4.644;2023-05-07T13:19:15;11.95;;;10.23;;
38629;SDS011;24384;51.988;4.644;2023-05-07T13:21:40;13.15;;;10.13;;
38629;SDS011;24384;51.988;4.644;2023-05-07T13:24:06;14.20;;;10.50;;
38629;SDS011;24384;51.988;4.644;2023-05-07T13:26:31;15.07;;;10.65;;
38629;SDS011;24384;51.988;4.644;2023-05-07T13:28:57;18.65;;;10.68;;
38629;SDS011;24384;51.988;4.644;2023-05-07T13:31:22;17.85;;;10.45;;
38629;SDS011;24384;51.988;4.644;2023-05-07T13:33:48;19.00;;;11.48;;
38629;SDS011;24384;51.988;4.644;2023-05-07T13:36:13;16.80;;;12.32;;
38629;SDS011;24384;51.988;4.644;2023-05-07T13:38:39;18.33;;;12.73;;
38629;SDS011;24384;51.988;4.644;2023-05-07T13:41:05;22.42;;;13.98;;
38629;SDS011;24384;51.988;4.644;2023-05-07T13:43:30;21.55;;;14.25;;
38629;SDS011;24384;51.988;4.644;2023-05-07T13:45:56;23.02;;;14.93;;
38629;SDS011;24384;51.988;4.644;2023-05-07T13:48:22;31.98;;;17.35;;
38629;SDS011;24384;51.988;4.644;2023-05-07T13:50:47;20.95;;;15.60;;
38629;SDS011;24384;51.988;4.644;2023-05-07T13:53:12;24.65;;;15.95;;
38629;SDS011;24384;51.988;4.644;2023-05-07T13:55:38;26.10;;;16.42;;
38629;SDS011;24384;51.988;4.644;2023-05-07T13:58:03;25.17;;;15.77;;
38629;SDS011;24384;51.988;4.644;2023-05-07T14:00:28;21.35;;;14.32;;
38629;SDS011;24384;51.988;4.644;2023-05-07T14:02:55;22.67;;;15.13;;
38629;SDS011;24384;51.988;4.644;2023-05-07T14:05:21;20.67;;;13.93;;
38629;SDS011;24384;51.988;4.644;2023-05-07T14:07:50;19.88;;;13.98;;
38629;SDS011;24384;51.988;4.644;2023-05-07T14:10:16;21.33;;;14.48;;
38629;SDS011;24384;51.988;4.644;2023-05-07T14:12:43;17.77;;;13.68;;
38629;SDS011;24384;51.988;4.644;2023-05-07T14:15:09;21.65;;;13.60;;
38629;SDS011;24384;51.988;4.644;2023-05-07T14:17:35;20.02;;;13.77;;
38629;SDS011;24384;51.988;4.644;2023-05-07T14:20:00;20.40;;;12.82;;
38629;SDS011;24384;51.988;4.644;2023-05-07T14:22:26;18.42;;;13.55;;
38629;SDS011;24384;51.988;4.644;2023-05-07T14:24:51;18.98;;;13.27;;
38629;SDS011;24384;51.988;4.644;2023-05-07T14:27:16;18.20;;;13.00;;
38629;SDS011;24384;51.988;4.644;2023-05-07T14:29:42;21.77;;;14.52;;
38629;SDS011;24384;51.988;4.644;2023-05-07T14:32:08;20.92;;;13.05;;
38629;SDS011;24384;51.988;4.644;2023-05-07T14:34:33;18.55;;;14.32;;